Time;durP1;ratioP1;P1;durP2;ratioP2;P2;SDS_P1;SDS_P2;PMS_P1;PMS_P2;Temp;Humidity;BMP_temperature;BMP_pressure;BME280_temperature;BME280_humidity;BME280_pressure;Samples;Min_cycle;Max_cycle;Signal;HPM_P1;HPM_P2
2021/05/28 00:00:43;;;;;;;;;;;;;;;14.76;100.00;92971.63;5052048;28;19947;-87
2021/05/28 00:03:09;;;;;;;;;;;;;;;14.77;100.00;92965.44;5052290;28;19921;-87
2021/05/28 00:05:35;;;;;;;;;;;;;;;14.77;100.00;92962.09;5052090;28;20438;-87
2021/05/28 00:08:01;;;;;;;;;;;;;;;14.73;100.00;92954.00;5051968;28;19935;-87
2021/05/28 00:10:28;;;;;;;;;;;;;;;14.69;100.00;92942.56;5051924;28;19936;-87
2021/05/28 00:12:57;;;;;;;;;;;;;;;14.59;100.00;92930.31;5051842;28;20421;-90
2021/05/28 00:15:23;;;;;;;;;;;;;;;14.55;100.00;92921.47;5051148;28;19932;-87
2021/05/28 00:17:50;;;;;;;;;;;;;;;14.42;100.00;92914.88;5051860;28;19920;-88
2021/05/28 00:20:16;;;;;;;;;;;;;;;14.37;100.00;92905.25;5051661;28;19931;-88
2021/05/28 00:22:43;;;;;;;;;;;;;;;14.35;100.00;92903.94;5051440;28;19925;-87
2021/05/28 00:25:10;;;;;;;;;;;;;;;14.29;100.00;92903.09;5052000;28;20267;-87
2021/05/28 00:27:36;;;;;;;;;;;;;;;14.26;100.00;92909.50;5051977;28;19921;-85
2021/05/28 00:30:03;;;;;;;;;;;;;;;14.21;100.00;92913.84;5051799;28;19950;-87
2021/05/28 00:32:30;;;;;;;;;;;;;;;14.14;100.00;92919.97;5051549;28;20297;-86
2021/05/28 00:34:57;;;;;;;;;;;;;;;14.13;100.00;92918.38;5051338;28;20447;-87
2021/05/28 00:37:23;;;;;;;;;;;;;;;14.26;100.00;92919.84;5052265;28;20368;-88
2021/05/28 00:39:49;;;;;;;;;;;;;;;14.18;100.00;92914.31;5053592;28;19920;-88
2021/05/28 00:42:15;;;;;;;;;;;;;;;13.97;100.00;92911.44;5053349;28;19974;-87
2021/05/28 00:44:41;;;;;;;;;;;;;;;13.93;100.00;92907.81;5051177;28;19920;-88
2021/05/28 00:47:07;;;;;;;;;;;;;;;13.87;100.00;92899.19;5051149;28;19921;-86
2021/05/28 00:49:34;;;;;;;;;;;;;;;13.91;100.00;92892.53;5051186;28;19932;-87
2021/05/28 00:52:01;;;;;;;;;;;;;;;13.91;100.00;92892.53;5051281;28;19921;-86
2021/05/28 00:54:27;;;;;;;;;;;;;;;13.91;100.00;92887.38;5051511;28;19931;-87
2021/05/28 00:56:53;;;;;;;;;;;;;;;13.95;100.00;92891.06;5050880;28;19951;-85
2021/05/28 00:59:19;;;;;;;;;;;;;;;13.98;100.00;92889.78;5050890;28;19967;-86
2021/05/28 01:01:46;;;;;;;;;;;;;;;13.97;100.00;92894.16;5051028;28;19971;-86
2021/05/28 01:04:12;;;;;;;;;;;;;;;13.98;100.00;92889.78;5050766;28;19920;-86
2021/05/28 01:06:38;;;;;;;;;;;;;;;13.96;100.00;92878.91;5050714;28;19921;-85
2021/05/28 01:09:06;;;;;;;;;;;;;;;13.96;100.00;92876.31;5050850;28;19924;-86
2021/05/28 01:11:32;;;;;;;;;;;;;;;13.95;100.00;92885.09;5050720;28;19925;-86
2021/05/28 01:13:59;;;;;;;;;;;;;;;13.94;100.00;92886.13;5050700;28;19944;-86
2021/05/28 01:16:25;;;;;;;;;;;;;;;13.91;100.00;92884.78;5050421;28;19931;-87
2021/05/28 01:18:52;;;;;;;;;;;;;;;13.87;100.00;92870.78;5050480;28;20379;-87
2021/05/28 01:21:19;;;;;;;;;;;;;;;13.87;100.00;92873.38;5050420;28;20372;-87
2021/05/28 01:23:46;;;;;;;;;;;;;;;13.84;100.00;92866.88;5050471;28;19936;-87
2021/05/28 01:26:12;;;;;;;;;;;;;;;13.83;100.00;92864.53;5050117;28;20380;-86
2021/05/28 01:28:38;;;;;;;;;;;;;;;13.83;100.00;92859.38;5050584;28;20009;-87
2021/05/28 01:31:04;;;;;;;;;;;;;;;13.78;100.00;92856.75;5050022;28;19921;-87
2021/05/28 01:33:30;;;;;;;;;;;;;;;13.69;100.00;92864.09;5050576;28;20280;-86
2021/05/28 01:35:58;;;;;;;;;;;;;;;13.60;100.00;92869.66;5050478;28;19924;-86
2021/05/28 01:38:24;;;;;;;;;;;;;;;13.52;100.00;92864.88;5050104;28;19925;-86
2021/05/28 01:40:52;;;;;;;;;;;;;;;13.50;100.00;92864.34;5050504;28;19920;-83
2021/05/28 01:43:18;;;;;;;;;;;;;;;13.46;100.00;92858.88;5050331;28;19928;-83
2021/05/28 01:45:44;;;;;;;;;;;;;;;13.48;100.00;92861.25;5050314;28;19928;-84
2021/05/28 01:48:10;;;;;;;;;;;;;;;13.46;100.00;92861.47;5050276;28;19921;-83
2021/05/28 01:50:43;;;;;;;;;;;;;;;13.44;100.00;92860.09;5050030;28;19970;-84
2021/05/28 01:53:09;;;;;;;;;;;;;;;13.44;100.00;92858.31;5050363;28;19932;-84
2021/05/28 01:55:36;;;;;;;;;;;;;;;13.43;100.00;92858.56;5049977;28;19932;-84
2021/05/28 01:58:06;;;;;;;;;;;;;;;13.42;100.00;92855.19;5049811;28;19936;-85
2021/05/28 02:00:32;;;;;;;;;;;;;;;13.44;100.00;92850.59;5050075;28;19932;-84
2021/05/28 02:02:58;;;;;;;;;;;;;;;13.45;100.00;92849.56;5050143;28;19974;-84
2021/05/28 02:05:24;;;;;;;;;;;;;;;13.44;100.00;92847.22;5049923;28;19928;-84
2021/05/28 02:07:50;;;;;;;;;;;;;;;13.38;100.00;92848.91;5049695;28;19939;-84
2021/05/28 02:10:16;;;;;;;;;;;;;;;13.34;100.00;92846.03;5050187;28;19921;-83
2021/05/28 02:12:43;;;;;;;;;;;;;;;13.32;100.00;92840.34;5049598;28;21449;-83
2021/05/28 02:15:10;;;;;;;;;;;;;;;13.35;100.00;92844.25;5049818;28;19931;-87
2021/05/28 02:17:37;;;;;;;;;;;;;;;13.32;100.00;92842.91;5050261;28;19971;-85
2021/05/28 02:20:03;;;;;;;;;;;;;;;13.35;100.00;92834.72;5050214;28;19924;-87
2021/05/28 02:22:29;;;;;;;;;;;;;;;13.38;100.00;92835.25;5050369;28;19928;-85
2021/05/28 02:24:55;;;;;;;;;;;;;;;13.40;100.00;92830.63;5049606;28;19925;-84
2021/05/28 02:27:21;;;;;;;;;;;;;;;13.41;100.00;92837.34;5049574;28;20239;-86
2021/05/28 02:29:47;;;;;;;;;;;;;;;13.40;100.00;92834.00;5049629;28;19928;-86
2021/05/28 02:32:14;;;;;;;;;;;;;;;13.42;100.00;92844.84;5049500;28;19935;-85
2021/05/28 02:34:40;;;;;;;;;;;;;;;13.40;100.00;92841.75;5049497;28;20365;-85
2021/05/28 02:37:06;;;;;;;;;;;;;;;13.43;100.00;92843.84;5049802;28;20360;-84
2021/05/28 02:39:32;;;;;;;;;;;;;;;13.46;100.00;92847.75;5052521;28;19925;-85
2021/05/28 02:41:59;;;;;;;;;;;;;;;13.45;100.00;92856.50;5053873;28;19925;-87
2021/05/28 02:44:25;;;;;;;;;;;;;;;13.46;100.00;92853.72;5053286;28;19973;-88
2021/05/28 02:46:51;;;;;;;;;;;;;;;13.32;100.00;92813.75;5053612;28;19928;-87
2021/05/28 02:49:18;;;;;;;;;;;;;;;13.45;100.00;92849.56;5053649;28;19931;-87
2021/05/28 02:51:44;;;;;;;;;;;;;;;13.47;100.00;92851.94;5053519;28;20319;-85
2021/05/28 02:54:10;;;;;;;;;;;;;;;13.51;100.00;92857.41;5053588;28;20016;-85
2021/05/28 02:56:36;;;;;;;;;;;;;;;13.42;100.00;92855.19;5053565;28;19921;-85
2021/05/28 02:59:02;;;;;;;;;;;;;;;13.45;100.00;92864.25;5053027;28;19924;-85
2021/05/28 03:01:28;;;;;;;;;;;;;;;13.46;100.00;92868.38;5053468;28;19925;-87
2021/05/28 03:03:54;;;;;;;;;;;;;;;13.30;100.00;92867.38;5053319;28;19932;-87
2021/05/28 03:06:21;;;;;;;;;;;;;;;13.34;100.00;92861.50;5053285;28;19921;-88
2021/05/28 03:08:47;;;;;;;;;;;;;;;13.38;100.00;92861.81;5053062;28;19925;-87
2021/05/28 03:11:13;;;;;;;;;;;;;;;13.36;100.00;92863.84;5052936;28;19967;-85
2021/05/28 03:13:40;;;;;;;;;;;;;;;13.40;100.00;92857.22;5052949;28;20369;-86
2021/05/28 03:16:06;;;;;;;;;;;;;;;13.41;100.00;92847.66;5053103;28;20340;-87
2021/05/28 03:18:44;;;;;;;;;;;;;;;13.44;100.00;92849.78;5053085;28;19984;-87
2021/05/28 03:21:20;;;;;;;;;;;;;;;13.44;100.00;92860.91;5052967;28;19979;-86
2021/05/28 03:23:47;;;;;;;;;;;;;;;13.41;100.00;92871.69;5052813;28;19964;-87
2021/05/28 03:26:13;;;;;;;;;;;;;;;13.44;100.00;92881.53;5053056;28;19971;-86
2021/05/28 03:28:39;;;;;;;;;;;;;;;13.46;100.00;92884.69;5052900;28;19971;-86
2021/05/28 03:31:06;;;;;;;;;;;;;;;13.48;100.00;92880.06;5052488;28;19928;-86
2021/05/28 03:33:32;;;;;;;;;;;;;;;13.51;100.00;92896.88;5052479;28;20381;-87
2021/05/28 03:35:58;;;;;;;;;;;;;;;13.55;100.00;92904.91;5052402;28;20292;-86
2021/05/28 03:38:24;;;;;;;;;;;;;;;13.59;100.00;92911.19;5052397;28;20017;-84
2021/05/28 03:40:51;;;;;;;;;;;;;;;13.69;100.00;92913.91;5052250;28;19933;-86
2021/05/28 03:43:17;;;;;;;;;;;;;;;13.70;100.00;92906.97;5052387;28;19932;-86
2021/05/28 03:45:43;;;;;;;;;;;;;;;13.73;100.00;92922.75;5052546;28;19925;-86
2021/05/28 03:48:10;;;;;;;;;;;;;;;13.76;100.00;92919.69;5052982;28;19970;-85
2021/05/28 03:50:36;;;;;;;;;;;;;;;13.83;100.00;92922.13;5052088;28;20306;-85
2021/05/28 03:53:02;;;;;;;;;;;;;;;13.90;100.00;92925.31;5052169;28;19993;-85
2021/05/28 03:55:28;;;;;;;;;;;;;;;13.94;100.00;92923.06;5052245;28;19924;-85
2021/05/28 03:57:55;;;;;;;;;;;;;;;13.79;100.00;92917.69;5052463;28;19920;-85
2021/05/28 04:00:22;;;;;;;;;;;;;;;13.86;100.00;92908.75;5052173;28;19971;-85
2021/05/28 04:02:48;;;;;;;;;;;;;;;13.93;100.00;92911.16;5052058;28;19921;-85
2021/05/28 04:05:15;;;;;;;;;;;;;;;13.94;100.00;92910.16;5052030;28;19939;-85
2021/05/28 04:07:41;;;;;;;;;;;;;;;14.04;100.00;92909.50;5052047;28;19953;-85
2021/05/28 04:10:08;;;;;;;;;;;;;;;14.12;100.00;92896.16;5052148;28;19925;-86
2021/05/28 04:12:34;;;;;;;;;;;;;;;14.16;100.00;92902.41;5051812;28;19921;-86
2021/05/28 04:15:01;;;;;;;;;;;;;;;14.23;100.00;92899.66;5051900;28;20276;-85
2021/05/28 04:17:27;;;;;;;;;;;;;;;14.26;100.00;92896.59;5052125;28;20249;-85
2021/05/28 04:19:53;;;;;;;;;;;;;;;14.31;100.00;92890.72;5051634;28;19920;-85
2021/05/28 04:22:19;;;;;;;;;;;;;;;14.35;100.00;92894.38;5051951;28;19924;-85
2021/05/28 04:24:45;;;;;;;;;;;;;;;14.46;100.00;92897.88;5051882;28;20019;-85
2021/05/28 04:27:12;;;;;;;;;;;;;;;14.52;100.00;92898.69;5051658;28;20004;-85
2021/05/28 04:29:38;;;;;;;;;;;;;;;14.56;100.00;92903.16;5051697;28;19971;-84
2021/05/28 04:32:05;;;;;;;;;;;;;;;14.65;100.00;92900.13;5051389;28;19990;-84
2021/05/28 04:34:33;;;;;;;;;;;;;;;14.76;100.00;92901.81;5052195;28;19924;-84
2021/05/28 04:36:59;;;;;;;;;;;;;;;14.80;100.00;92902.13;5051550;28;20455;-84
2021/05/28 04:39:26;;;;;;;;;;;;;;;14.78;100.00;92893.84;5051619;28;19925;-84
2021/05/28 04:41:52;;;;;;;;;;;;;;;14.82;100.00;92900.09;5051288;28;19924;-84
2021/05/28 04:44:18;;;;;;;;;;;;;;;14.89;100.00;92905.03;5053666;28;19928;-84
2021/05/28 04:46:44;;;;;;;;;;;;;;;14.91;100.00;92914.13;5057217;28;19920;-85
2021/05/28 04:49:11;;;;;;;;;;;;;;;14.90;100.00;92909.97;5055697;28;19967;-85
2021/05/28 04:51:37;;;;;;;;;;;;;;;14.92;100.00;92909.75;5051426;28;19967;-85
2021/05/28 04:54:04;;;;;;;;;;;;;;;14.93;100.00;92898.38;5051336;28;19921;-85
2021/05/28 04:56:30;;;;;;;;;;;;;;;14.92;100.00;92895.03;5050987;28;19971;-85
2021/05/28 04:58:56;;;;;;;;;;;;;;;14.92;100.00;92889.84;5051190;28;19921;-85
2021/05/28 05:01:22;;;;;;;;;;;;;;;14.94;100.00;92894.75;5050201;28;20014;-85
2021/05/28 05:03:48;;;;;;;;;;;;;;;14.91;100.00;92903.78;5050864;28;19925;-85
2021/05/28 05:06:15;;;;;;;;;;;;;;;14.98;100.00;92916.53;5051178;28;19925;-85
2021/05/28 05:08:41;;;;;;;;;;;;;;;14.89;100.00;92905.84;5050682;28;20027;-87
2021/05/28 05:11:07;;;;;;;;;;;;;;;15.05;100.00;92908.56;5051050;28;19932;-84
2021/05/28 05:13:33;;;;;;;;;;;;;;;15.12;100.00;92911.75;5050593;28;19928;-84
2021/05/28 05:16:04;;;;;;;;;;;;;;;15.32;100.00;92913.72;5050848;28;19920;-84
2021/05/28 05:18:33;;;;;;;;;;;;;;;15.59;100.00;92912.91;5050776;28;19921;-85
2021/05/28 05:20:59;;;;;;;;;;;;;;;15.81;100.00;92919.78;5050429;28;19920;-85
2021/05/28 05:23:29;;;;;;;;;;;;;;;15.95;100.00;92920.16;5050288;28;20004;-85
2021/05/28 05:25:55;;;;;;;;;;;;;;;16.09;100.00;92924.88;5051216;28;20008;-84
2021/05/28 05:28:22;;;;;;;;;;;;;;;16.12;100.00;92925.16;5051303;28;20272;-84
2021/05/28 05:30:48;;;;;;;;;;;;;;;15.68;100.00;92927.97;5050764;28;19922;-86
2021/05/28 05:33:16;;;;;;;;;;;;;;;15.15;100.00;92921.59;5050795;28;19929;-84
2021/05/28 05:35:42;;;;;;;;;;;;;;;15.42;100.00;92922.59;5050911;28;20361;-83
2021/05/28 05:38:08;;;;;;;;;;;;;;;15.69;100.00;92930.31;5051139;28;19932;-84
2021/05/28 05:40:37;;;;;;;;;;;;;;;15.83;100.00;92929.91;5050972;28;19927;-83
2021/05/28 05:43:03;;;;;;;;;;;;;;;15.89;100.00;92928.91;5050820;28;19928;-84
2021/05/28 05:45:29;;;;;;;;;;;;;;;16.08;100.00;92936.28;5051266;28;20027;-83
2021/05/28 05:47:55;;;;;;;;;;;;;;;16.34;100.00;92936.44;5050694;28;20363;-83
2021/05/28 05:50:21;;;;;;;;;;;;;;;16.29;100.00;92942.34;5050517;28;19927;-83
2021/05/28 05:52:47;;;;;;;;;;;;;;;16.33;100.00;92942.66;5050584;28;19928;-84
2021/05/28 05:55:15;;;;;;;;;;;;;;;16.26;100.00;92942.88;5050816;28;19932;-83
2021/05/28 05:57:42;;;;;;;;;;;;;;;16.29;100.00;92940.56;5049961;28;20292;-84
2021/05/28 06:00:09;;;;;;;;;;;;;;;16.72;100.00;92938.91;5050145;28;19921;-85
2021/05/28 06:02:37;;;;;;;;;;;;;;;17.07;100.00;92940.88;5049958;28;19925;-84
2021/05/28 06:05:03;;;;;;;;;;;;;;;17.20;100.00;92949.19;5050042;28;20836;-85
2021/05/28 06:07:29;;;;;;;;;;;;;;;17.15;100.00;92943.97;5050120;28;19921;-84
2021/05/28 06:09:55;;;;;;;;;;;;;;;17.35;100.00;92949.22;5049741;28;19920;-84
2021/05/28 06:12:21;;;;;;;;;;;;;;;17.52;100.00;92945.59;5049448;28;20267;-85
2021/05/28 06:14:48;;;;;;;;;;;;;;;17.89;100.00;92946.34;5050085;28;19924;-83
2021/05/28 06:17:14;;;;;;;;;;;;;;;18.21;97.64;92947.13;5049962;28;19921;-83
2021/05/28 06:19:40;;;;;;;;;;;;;;;18.61;97.65;92955.06;5049564;28;20339;-83
2021/05/28 06:22:06;;;;;;;;;;;;;;;18.73;95.85;92937.34;5049486;28;19920;-83
2021/05/28 06:24:34;;;;;;;;;;;;;;;18.92;93.03;92960.13;5049854;28;20284;-83
2021/05/28 06:27:00;;;;;;;;;;;;;;;19.06;93.51;92953.34;5049786;28;19928;-84
2021/05/28 06:29:26;;;;;;;;;;;;;;;19.15;92.79;92956.16;5048712;28;19921;-85
2021/05/28 06:31:53;;;;;;;;;;;;;;;19.30;92.51;92959.72;5049614;28;20380;-83
2021/05/28 06:34:19;;;;;;;;;;;;;;;18.83;88.94;92959.91;5055713;28;19920;-82
2021/05/28 06:36:45;;;;;;;;;;;;;;;18.78;93.99;92963.31;5067741;28;19948;-82
2021/05/28 06:39:11;;;;;;;;;;;;;;;18.30;94.27;92953.34;5069138;28;19921;-82
2021/05/28 06:41:37;;;;;;;;;;;;;;;17.86;97.64;92950.25;5069243;28;20367;-82
2021/05/28 06:44:04;;;;;;;;;;;;;;;17.92;96.66;92948.44;5069586;28;19925;-82
2021/05/28 06:46:30;;;;;;;;;;;;;;;18.11;96.53;92947.91;5069713;28;19920;-82
2021/05/28 06:48:58;;;;;;;;;;;;;;;18.30;94.63;92948.16;5069455;28;19928;-82
2021/05/28 06:51:24;;;;;;;;;;;;;;;18.78;94.45;92947.72;5069135;28;19932;-82
2021/05/28 06:53:50;;;;;;;;;;;;;;;19.45;92.36;92948.41;5069460;28;19925;-83
2021/05/28 06:56:16;;;;;;;;;;;;;;;19.65;89.28;92947.50;5069537;28;20272;-82
2021/05/28 06:58:48;;;;;;;;;;;;;;;19.68;84.38;92956.59;5069075;28;19952;-83
2021/05/28 07:01:14;;;;;;;;;;;;;;;19.56;85.23;92952.50;5069023;28;20421;-83
2021/05/28 07:03:40;;;;;;;;;;;;;;;18.92;83.34;92947.91;5069401;28;19931;-83
2021/05/28 07:06:07;;;;;;;;;;;;;;;18.60;86.32;92953.53;5068989;28;19990;-82
2021/05/28 07:08:33;;;;;;;;;;;;;;;18.41;88.71;92949.66;5069284;28;20015;-83
2021/05/28 07:10:59;;;;;;;;;;;;;;;18.09;88.17;92942.97;5069148;28;20360;-84
2021/05/28 07:13:25;;;;;;;;;;;;;;;18.18;89.20;92942.47;5069069;28;19925;-84
2021/05/28 07:15:52;;;;;;;;;;;;;;;18.36;89.82;92943.69;5069476;28;19920;-84
2021/05/28 07:18:18;;;;;;;;;;;;;;;18.41;89.19;92948.88;5069307;28;19931;-84
2021/05/28 07:20:53;;;;;;;;;;;;;;;18.61;88.19;92942.84;5068843;28;19924;-85
2021/05/28 07:23:22;;;;;;;;;;;;;;;18.40;86.65;92944.72;5069099;28;19921;-84
2021/05/28 07:25:48;;;;;;;;;;;;;;;18.26;88.17;92942.69;5072027;28;19931;-83
2021/05/28 07:28:14;;;;;;;;;;;;;;;18.26;89.94;92939.31;5072834;28;20295;-83
2021/05/28 07:30:40;;;;;;;;;;;;;;;18.41;91.19;92941.09;5072849;28;19928;-83
2021/05/28 07:33:06;;;;;;;;;;;;;;;18.34;89.93;92943.97;5072619;28;19931;-83
2021/05/28 07:35:32;;;;;;;;;;;;;;;17.98;88.59;92939.59;5072681;28;19921;-83
2021/05/28 07:37:59;;;;;;;;;;;;;;;17.55;90.81;92928.72;5072513;28;19928;-84
2021/05/28 07:40:25;;;;;;;;;;;;;;;17.28;93.82;92932.31;5072568;28;19925;-83
2021/05/28 07:42:52;;;;;;;;;;;;;;;16.94;94.48;92938.75;5072359;28;19921;-82
2021/05/28 07:45:18;;;;;;;;;;;;;;;16.60;98.01;92936.53;5072577;28;19924;-84
2021/05/28 07:47:44;;;;;;;;;;;;;;;16.36;98.60;92947.31;5072436;28;19925;-82
2021/05/28 07:50:11;;;;;;;;;;;;;;;16.26;99.23;92946.22;5072549;28;19920;-81
2021/05/28 07:52:37;;;;;;;;;;;;;;;15.60;99.62;92953.28;5056830;28;20392;-82
2021/05/28 07:55:04;;;;;;;;;;;;;;;15.54;100.00;92948.31;5042497;28;19931;-82
2021/05/28 07:57:31;;;;;;;;;;;;;;;15.45;100.00;92955.75;5040596;28;19932;-81
2021/05/28 07:59:57;;;;;;;;;;;;;;;15.36;100.00;92956.19;5041830;28;19921;-83
2021/05/28 08:02:23;;;;;;;;;;;;;;;15.25;100.00;92975.25;5041046;28;20281;-80
2021/05/28 08:04:49;;;;;;;;;;;;;;;15.03;100.00;92975.28;5041388;28;20284;-82
2021/05/28 08:07:18;;;;;;;;;;;;;;;14.91;100.00;92973.59;5042438;28;19921;-83
2021/05/28 08:09:45;;;;;;;;;;;;;;;14.90;100.00;92979.81;5044443;28;19927;-82
2021/05/28 08:12:11;;;;;;;;;;;;;;;14.71;100.00;92979.28;5041104;28;20020;-83
2021/05/28 08:14:38;;;;;;;;;;;;;;;14.52;100.00;92983.97;5041628;28;19921;-83
2021/05/28 08:17:04;;;;;;;;;;;;;;;14.10;100.00;92986.03;5041417;28;19943;-82
2021/05/28 08:19:30;;;;;;;;;;;;;;;14.10;100.00;92988.59;5040615;28;19921;-84
2021/05/28 08:21:56;;;;;;;;;;;;;;;14.06;100.00;93003.00;5041678;28;19924;-85
2021/05/28 08:24:25;;;;;;;;;;;;;;;14.06;100.00;93007.41;5039094;28;19982;-85
2021/05/28 08:26:51;;;;;;;;;;;;;;;13.98;100.00;93016.31;5039482;28;19921;-88
2021/05/28 08:29:17;;;;;;;;;;;;;;;14.08;100.00;93028.59;5041237;28;19932;-84
2021/05/28 08:31:50;;;;;;;;;;;;;;;13.94;100.00;93036.69;5049433;28;19925;-86
2021/05/28 08:34:16;;;;;;;;;;;;;;;13.51;100.00;93041.38;5051963;28;20353;-88
2021/05/28 08:36:42;;;;;;;;;;;;;;;13.49;100.00;93053.72;5052111;28;20033;-87
2021/05/28 08:39:11;;;;;;;;;;;;;;;13.31;100.00;93052.88;5051969;28;19932;-88
2021/05/28 08:41:42;;;;;;;;;;;;;;;13.03;100.00;93059.59;5051399;28;19927;-88
2021/05/28 08:44:10;;;;;;;;;;;;;;;12.90;100.00;93072.72;5051151;28;19921;-90
2021/05/28 08:46:39;;;;;;;;;;;;;;;12.64;100.00;93067.03;5048716;28;19925;-88
2021/05/28 08:49:13;;;;;;;;;;;;;;;12.61;100.00;93067.47;5058763;28;19959;-86
2021/05/28 08:51:39;;;;;;;;;;;;;;;12.47;100.00;93074.66;5070552;28;19955;-86
2021/05/28 08:54:06;;;;;;;;;;;;;;;12.33;100.00;93095.50;5076032;28;20015;-87
2021/05/28 08:56:32;;;;;;;;;;;;;;;12.45;100.00;93097.28;5071175;28;20440;-85
2021/05/28 08:58:58;;;;;;;;;;;;;;;12.54;100.00;93101.88;5070825;28;19965;-84
2021/05/28 09:01:24;;;;;;;;;;;;;;;12.59;100.00;93111.50;5070107;28;19931;-86
2021/05/28 09:03:57;;;;;;;;;;;;;;;12.77;100.00;93108.03;5070939;28;19927;-90
2021/05/28 09:06:24;;;;;;;;;;;;;;;12.54;100.00;93112.19;5070328;28;19931;-85
2021/05/28 09:08:50;;;;;;;;;;;;;;;12.74;100.00;93111.06;5070629;28;19950;-87
2021/05/28 09:11:17;;;;;;;;;;;;;;;12.91;100.00;93110.38;5070503;28;20376;-86
2021/05/28 09:13:56;;;;;;;;;;;;;;;12.99;100.00;93122.13;5070346;28;19959;-89
2021/05/28 09:16:23;;;;;;;;;;;;;;;13.05;100.00;93123.81;5071154;28;20446;-84
2021/05/28 09:18:50;;;;;;;;;;;;;;;13.16;100.00;93133.34;5071207;28;19928;-86
2021/05/28 09:21:21;;;;;;;;;;;;;;;13.19;100.00;93132.09;5071056;28;19970;-88
2021/05/28 09:23:59;;;;;;;;;;;;;;;13.15;100.00;93134.31;5070654;28;19920;-88
2021/05/28 09:26:25;;;;;;;;;;;;;;;13.16;100.00;93137.69;5070496;28;19925;-91
2021/05/28 09:28:54;;;;;;;;;;;;;;;13.23;100.00;93133.19;5070323;28;19921;-90
2021/05/28 09:31:22;;;;;;;;;;;;;;;13.28;100.00;93138.44;5071289;28;19920;-86
2021/05/28 09:33:49;;;;;;;;;;;;;;;13.29;100.00;93144.41;5071080;28;19921;-87
2021/05/28 09:36:18;;;;;;;;;;;;;;;13.32;100.00;93143.94;5070359;28;20372;-85
2021/05/28 09:39:02;;;;;;;;;;;;;;;13.26;100.00;93150.00;5069835;28;19927;-86
2021/05/28 09:41:41;;;;;;;;;;;;;;;13.26;100.00;93147.44;5071479;28;20310;-89
2021/05/28 09:44:08;;;;;;;;;;;;;;;13.20;100.00;93154.28;5071046;28;19928;-84
2021/05/28 09:46:34;;;;;;;;;;;;;;;13.23;100.00;93143.50;5070671;28;19924;-86
2021/05/28 09:49:06;;;;;;;;;;;;;;;13.17;100.00;93152.16;5070253;28;19924;-88
2021/05/28 09:51:33;;;;;;;;;;;;;;;13.18;100.00;93153.72;5069920;28;20042;-87
2021/05/28 09:54:11;;;;;;;;;;;;;;;13.10;100.00;93152.28;5069757;28;19932;-85
2021/05/28 09:56:37;;;;;;;;;;;;;;;13.06;100.00;93161.50;5069578;28;19921;-86
2021/05/28 09:59:06;;;;;;;;;;;;;;;13.04;100.00;93153.97;5069581;28;19921;-84
2021/05/28 10:01:32;;;;;;;;;;;;;;;13.04;100.00;93151.41;5070138;28;20351;-83
2021/05/28 10:03:59;;;;;;;;;;;;;;;13.03;100.00;93149.03;5070117;28;20002;-83
2021/05/28 10:06:27;;;;;;;;;;;;;;;13.13;100.00;93145.88;5069886;28;19920;-85
2021/05/28 10:08:53;;;;;;;;;;;;;;;13.22;100.00;93150.47;5069690;28;19920;-85
2021/05/28 10:11:20;;;;;;;;;;;;;;;13.16;100.00;93148.00;5069722;28;19924;-82
2021/05/28 10:13:46;;;;;;;;;;;;;;;13.21;100.00;93150.69;5070010;28;19966;-83
2021/05/28 10:16:13;;;;;;;;;;;;;;;13.09;100.00;93140.38;5070038;28;19931;-85
2021/05/28 10:18:40;;;;;;;;;;;;;;;13.02;100.00;93140.53;5069730;28;19920;-84
2021/05/28 10:21:06;;;;;;;;;;;;;;;13.04;100.00;93137.69;5069595;28;20279;-85
2021/05/28 10:23:32;;;;;;;;;;;;;;;13.06;100.00;93133.13;5069962;28;20384;-85
2021/05/28 10:25:59;;;;;;;;;;;;;;;12.81;100.00;93131.56;5069578;28;20421;-84
2021/05/28 10:28:30;;;;;;;;;;;;;;;12.95;100.00;93139.84;5069991;28;20294;-84
2021/05/28 10:30:56;;;;;;;;;;;;;;;12.92;100.00;93135.16;5070090;28;19925;-84
2021/05/28 10:33:23;;;;;;;;;;;;;;;12.98;100.00;93136.03;5069746;28;19925;-84
2021/05/28 10:35:50;;;;;;;;;;;;;;;13.08;100.00;93137.03;5054014;28;19960;-84
2021/05/28 10:38:37;;;;;;;;;;;;;;;13.12;100.00;93134.78;5047183;28;20279;-84
2021/05/28 10:41:21;;;;;;;;;;;;;;;12.93;100.00;93141.88;5059825;28;19925;-84
2021/05/28 10:44:00;;;;;;;;;;;;;;;12.98;100.00;93138.59;5068738;28;19925;-83
2021/05/28 10:46:27;;;;;;;;;;;;;;;13.12;100.00;93136.56;5069200;28;20354;-84
2021/05/28 10:49:10;;;;;;;;;;;;;;;13.40;100.00;93125.53;5057016;28;19975;-84
2021/05/28 10:51:55;;;;;;;;;;;;;;;13.39;100.00;93126.56;5044436;28;20054;-85
2021/05/28 10:54:25;;;;;;;;;;;;;;;13.38;100.00;93131.94;5069512;28;19925;-84
2021/05/28 10:56:51;;;;;;;;;;;;;;;13.26;100.00;93134.53;5069367;28;20383;-83
2021/05/28 10:59:18;;;;;;;;;;;;;;;13.47;100.00;93128.03;5069750;28;20431;-83
2021/05/28 11:01:45;;;;;;;;;;;;;;;13.68;100.00;93124.00;5072918;28;19920;-84
2021/05/28 11:04:12;;;;;;;;;;;;;;;13.59;100.00;93123.59;5073209;28;19920;-84
2021/05/28 11:06:53;;;;;;;;;;;;;;;13.72;100.00;93132.06;5073313;28;19927;-83
2021/05/28 11:09:19;;;;;;;;;;;;;;;13.97;100.00;93126.56;5072206;28;20327;-85
2021/05/28 11:11:48;;;;;;;;;;;;;;;13.96;100.00;93131.97;5072360;28;19955;-85
2021/05/28 11:14:17;;;;;;;;;;;;;;;13.86;100.00;93125.63;5072871;28;19924;-84
2021/05/28 11:17:01;;;;;;;;;;;;;;;13.77;100.00;93132.16;5072682;28;19970;-84
2021/05/28 11:19:30;;;;;;;;;;;;;;;13.73;100.00;93131.84;5071950;28;19920;-84
2021/05/28 11:21:56;;;;;;;;;;;;;;;13.65;100.00;93131.44;5072842;28;19963;-84
2021/05/28 11:24:40;;;;;;;;;;;;;;;13.52;100.00;93130.66;5072712;28;19924;-83
2021/05/28 11:27:11;;;;;;;;;;;;;;;13.36;100.00;93130.38;5072484;28;19970;-84
2021/05/28 11:29:37;;;;;;;;;;;;;;;12.96;100.00;93131.09;5071772;28;19942;-84
2021/05/28 11:32:28;;;;;;;;;;;;;;;12.62;100.00;93123.16;5057706;28;19970;-84
2021/05/28 11:37:54;;;;;;;;;;;;;;;12.90;100.00;93122.50;5128237;27;19961;-83
2021/05/28 11:40:21;;;;;;;;;;;;;;;13.03;100.00;93123.25;5127906;28;19988;-83
2021/05/28 11:42:47;;;;;;;;;;;;;;;13.19;100.00;93116.63;5128251;28;19919;-85
2021/05/28 11:45:14;;;;;;;;;;;;;;;12.99;100.00;93122.13;5128176;27;19923;-84
2021/05/28 11:47:41;;;;;;;;;;;;;;;13.07;100.00;93116.63;5127943;28;19943;-85
2021/05/28 11:50:08;;;;;;;;;;;;;;;13.08;100.00;93123.34;5128228;27;19923;-84
2021/05/28 11:52:34;;;;;;;;;;;;;;;13.26;100.00;93116.47;5127766;27;19920;-83
2021/05/28 11:55:09;;;;;;;;;;;;;;;13.31;100.00;93122.53;5127284;28;19924;-84
2021/05/28 11:57:35;;;;;;;;;;;;;;;13.43;100.00;93119.91;5121840;27;19938;-85
2021/05/28 12:00:06;;;;;;;;;;;;;;;13.61;100.00;93120.78;5107395;28;20341;-86
2021/05/28 12:02:33;;;;;;;;;;;;;;;13.49;100.00;93126.78;5106881;28;20371;-85
2021/05/28 12:04:59;;;;;;;;;;;;;;;13.02;100.00;93126.84;5106975;28;20368;-83
2021/05/28 12:07:28;;;;;;;;;;;;;;;12.85;100.00;93132.69;5106700;28;19920;-84
2021/05/28 12:10:03;;;;;;;;;;;;;;;12.53;100.00;93140.75;5106783;28;19919;-84
2021/05/28 12:12:44;;;;;;;;;;;;;;;12.66;100.00;93140.53;5106873;28;19924;-84
2021/05/28 12:15:11;;;;;;;;;;;;;;;12.67;100.00;93142.09;5106558;28;19969;-85
2021/05/28 12:17:37;;;;;;;;;;;;;;;12.49;100.00;93152.53;5106726;28;19927;-83
2021/05/28 12:20:14;;;;;;;;;;;;;;;12.78;100.00;93152.66;5106548;28;20398;-83
2021/05/28 12:22:54;;;;;;;;;;;;;;;12.82;100.00;93153.75;5106735;28;19920;-83
2021/05/28 12:25:20;;;;;;;;;;;;;;;12.82;100.00;93159.69;5106657;28;20409;-83
2021/05/28 12:27:46;;;;;;;;;;;;;;;12.69;100.00;93165.84;5106402;28;19924;-85
2021/05/28 12:30:16;;;;;;;;;;;;;;;12.27;100.00;93161.53;5106808;28;19934;-85
2021/05/28 12:32:42;;;;;;;;;;;;;;;12.46;100.00;93169.22;5106814;28;20346;-85
2021/05/28 12:35:08;;;;;;;;;;;;;;;12.39;100.00;93169.31;5106773;28;19924;-83
2021/05/28 12:37:34;;;;;;;;;;;;;;;12.36;100.00;93168.97;5106806;28;19920;-83
2021/05/28 12:40:06;;;;;;;;;;;;;;;12.10;100.00;93178.63;5106777;28;19927;-83
2021/05/28 12:42:32;;;;;;;;;;;;;;;12.10;100.00;93184.56;5106446;28;19931;-82